Time;durP1;ratioP1;P1;durP2;ratioP2;P2;SDS_P1;SDS_P2;PMS_P1;PMS_P2;Temp;Humidity;BMP_temperature;BMP_pressure;BME280_temperature;BME280_humidity;BME280_pressure;Samples;Min_cycle;Max_cycle;Signal;HPM_P1;HPM_P2
2021/08/10 00:00:40;;;;;;;1.40;1.30;;;21.30;64.60;;;;;;5111246;28;20263;-62
2021/08/10 00:03:05;;;;;;;2.33;1.60;;;21.30;64.70;;;;;;5112365;28;20173;-63
2021/08/10 00:05:31;;;;;;;1.85;1.65;;;21.30;64.70;;;;;;5111315;28;20184;-63
2021/08/10 00:07:56;;;;;;;2.05;1.50;;;21.30;64.70;;;;;;5112205;28;20196;-62
2021/08/10 00:10:22;;;;;;;1.80;1.45;;;21.30;64.70;;;;;;5114746;28;20275;-62
2021/08/10 00:12:48;;;;;;;1.58;1.10;;;21.30;65.50;;;;;;5115723;28;20181;-62
2021/08/10 00:15:14;;;;;;;1.38;1.27;;;21.30;64.70;;;;;;5116728;28;20181;-62
2021/08/10 00:17:40;;;;;;;2.00;1.45;;;21.30;64.70;;;;;;5116681;28;20260;-62
2021/08/10 00:20:06;;;;;;;2.13;1.75;;;21.30;64.70;;;;;;5115840;28;20263;-64
2021/08/10 00:22:31;;;;;;;1.90;1.65;;;21.30;64.70;;;;;;5115838;28;20220;-63
2021/08/10 00:24:57;;;;;;;1.48;1.38;;;21.30;64.70;;;;;;5116372;28;20219;-61
2021/08/10 00:27:22;;;;;;;2.30;1.67;;;21.30;64.70;;;;;;5115064;28;20218;-62
2021/08/10 00:29:48;;;;;;;1.52;1.38;;;21.30;64.70;;;;;;5116454;28;20215;-62
2021/08/10 00:32:13;;;;;;;1.60;1.50;;;21.20;64.60;;;;;;5116075;28;20590;-63
2021/08/10 00:34:39;;;;;;;1.50;1.40;;;21.30;64.70;;;;;;5115155;28;20267;-63
2021/08/10 00:37:05;;;;;;;1.90;1.80;;;21.20;64.70;;;;;;5116029;28;20175;-62
2021/08/10 00:39:31;;;;;;;1.38;1.27;;;21.20;64.70;;;;;;5115804;28;20176;-62
2021/08/10 00:41:56;;;;;;;2.17;1.48;;;21.20;64.70;;;;;;5114500;28;20269;-62
2021/08/10 00:44:22;;;;;;;2.33;1.50;;;21.20;64.70;;;;;;5115575;28;20239;-62
2021/08/10 00:46:47;;;;;;;1.52;1.40;;;21.30;64.80;;;;;;5116176;28;20169;-62
2021/08/10 00:49:13;;;;;;;1.55;1.45;;;21.20;64.70;;;;;;5115205;28;20671;-62
2021/08/10 00:51:38;;;;;;;1.63;1.52;;;21.20;64.80;;;;;;5115535;28;20175;-63
2021/08/10 00:54:05;;;;;;;1.63;1.52;;;21.20;64.80;;;;;;5115968;28;20260;-64
2021/08/10 00:56:31;;;;;;;1.52;1.42;;;21.20;64.70;;;;;;5114746;28;20180;-64
2021/08/10 00:58:56;;;;;;;1.38;1.27;;;21.20;64.80;;;;;;5115969;28;20173;-63
2021/08/10 01:01:22;;;;;;;1.55;1.45;;;21.20;64.80;;;;;;5115453;28;20180;-64
2021/08/10 01:03:47;;;;;;;1.50;1.40;;;21.20;64.80;;;;;;5114768;28;20173;-63
2021/08/10 01:06:24;;;;;;;1.77;1.67;;;21.20;64.80;;;;;;5115608;28;20179;-63
2021/08/10 01:08:58;;;;;;;1.50;1.40;;;21.20;64.80;;;;;;5097226;28;20324;-63
2021/08/10 01:11:24;;;;;;;2.00;1.52;;;21.20;64.80;;;;;;5115322;28;20221;-64
2021/08/10 01:14:20;;;;;;;1.90;1.40;;;21.20;64.90;;;;;;5115364;28;20185;-63
2021/08/10 01:16:57;;;;;;;1.70;1.60;;;21.20;64.80;;;;;;5114646;28;20184;-63
2021/08/10 01:19:29;;;;;;;2.05;1.33;;;21.20;64.80;;;;;;5098036;28;20205;-63
2021/08/10 01:21:56;;;;;;;1.85;1.60;;;21.10;64.80;;;;;;5097159;28;20311;-63
2021/08/10 01:24:35;;;;;;;1.70;1.45;;;21.10;64.70;;;;;;5096167;28;20181;-64
2021/08/10 01:27:25;;;;;;;1.65;1.55;;;21.20;64.80;;;;;;5115348;28;20289;-63
2021/08/10 01:30:03;;;;;;;1.67;1.58;;;21.10;64.80;;;;;;5114646;28;20185;-63
2021/08/10 01:32:29;;;;;;;1.48;1.25;;;21.10;64.70;;;;;;5081532;28;20268;-64
2021/08/10 01:34:55;;;;;;;1.60;1.50;;;21.10;64.80;;;;;;5080077;28;20175;-64
2021/08/10 01:37:25;;;;;;;1.92;1.35;;;21.10;64.70;;;;;;5113917;28;20169;-67
2021/08/10 01:39:53;;;;;;;1.95;1.50;;;21.20;64.80;;;;;;5114949;28;20187;-64
2021/08/10 01:42:18;;;;;;;1.98;1.42;;;21.10;64.80;;;;;;5096212;28;20184;-64
2021/08/10 01:44:45;;;;;;;1.50;1.40;;;21.10;64.80;;;;;;5078919;28;20541;-64
2021/08/10 01:47:10;;;;;;;2.25;1.50;;;21.10;64.80;;;;;;5096930;28;20264;-63
2021/08/10 01:49:36;;;;;;;1.80;1.20;;;21.10;64.80;;;;;;5096285;28;20296;-62
2021/08/10 01:52:02;;;;;;;1.88;1.38;;;21.10;64.90;;;;;;5079036;28;20283;-63
2021/08/10 01:54:28;;;;;;;1.52;1.33;;;21.10;64.80;;;;;;5096243;28;20647;-63
2021/08/10 01:56:54;;;;;;;1.77;1.25;;;21.10;64.80;;;;;;5114538;28;20536;-64
2021/08/10 01:59:19;;;;;;;2.28;1.40;;;21.10;64.80;;;;;;5078405;28;20173;-63
2021/08/10 02:01:45;;;;;;;1.50;1.40;;;21.10;64.80;;;;;;5096185;28;20173;-63
2021/08/10 02:04:10;;;;;;;1.58;1.48;;;21.10;64.80;;;;;;5096199;28;20576;-63
2021/08/10 02:06:37;;;;;;;1.95;1.52;;;21.10;64.80;;;;;;5095236;28;20195;-64
2021/08/10 02:09:02;;;;;;;2.60;1.65;;;21.10;64.80;;;;;;5079305;28;20197;-64
2021/08/10 02:11:28;;;;;;;1.63;1.52;;;21.10;64.90;;;;;;5095689;28;20173;-64
2021/08/10 02:13:55;;;;;;;1.58;1.42;;;21.10;64.90;;;;;;5095673;28;20299;-63
2021/08/10 02:16:20;;;;;;;1.67;1.58;;;21.00;64.80;;;;;;5095718;28;20173;-63
2021/08/10 02:18:46;;;;;;;1.75;1.65;;;21.00;64.80;;;;;;5095825;28;20181;-63
2021/08/10 02:21:18;;;;;;;1.60;1.50;;;21.10;64.90;;;;;;5084370;28;20229;-64
2021/08/10 02:23:44;;;;;;;1.45;1.35;;;21.00;64.80;;;;;;5072173;28;20178;-63
2021/08/10 02:26:10;;;;;;;1.50;1.40;;;21.00;64.80;;;;;;5071446;28;20178;-63
2021/08/10 02:28:35;;;;;;;1.65;1.55;;;21.00;64.80;;;;;;5071808;28;20213;-66
2021/08/10 02:31:01;;;;;;;1.70;1.60;;;21.00;64.80;;;;;;5072095;28;20511;-63
2021/08/10 02:33:26;;;;;;;3.22;1.63;;;21.10;64.80;;;;;;5053560;28;20232;-64
2021/08/10 02:35:53;;;;;;;1.73;1.60;;;21.10;64.80;;;;;;5073374;28;20183;-65
2021/08/10 02:38:19;;;;;;;2.38;1.45;;;21.00;64.80;;;;;;5071705;28;20548;-63
2021/08/10 02:40:46;;;;;;;2.03;1.60;;;21.00;64.90;;;;;;5054536;28;20177;-64
2021/08/10 02:43:11;;;;;;;1.70;1.42;;;21.00;64.80;;;;;;5073352;28;20182;-63
2021/08/10 02:45:37;;;;;;;1.55;1.45;;;21.00;64.90;;;;;;5072969;28;20167;-63
2021/08/10 02:48:03;;;;;;;1.70;1.60;;;21.00;64.90;;;;;;5072591;28;20270;-63
2021/08/10 02:50:29;;;;;;;1.60;1.50;;;21.00;64.90;;;;;;5072857;28;20583;-62
2021/08/10 02:52:55;;;;;;;2.28;1.60;;;21.00;64.90;;;;;;5072987;28;20174;-63
2021/08/10 02:55:21;;;;;;;1.75;1.48;;;21.00;64.90;;;;;;5071821;28;20170;-63
2021/08/10 02:57:58;;;;;;;1.55;1.45;;;21.00;64.90;;;;;;5055472;28;20257;-62
2021/08/10 03:00:26;;;;;;;2.30;1.63;;;21.00;64.90;;;;;;5071112;28;20656;-63
2021/08/10 03:02:53;;;;;;;1.50;1.40;;;21.00;64.90;;;;;;5071021;28;20234;-63
2021/08/10 03:05:20;;;;;;;1.48;1.38;;;21.00;65.00;;;;;;5071190;28;20185;-63
2021/08/10 03:07:56;;;;;;;1.48;1.38;;;21.00;65.00;;;;;;5071138;28;20206;-63
2021/08/10 03:10:25;;;;;;;3.10;1.70;;;21.00;64.90;;;;;;5071875;28;20182;-63
2021/08/10 03:12:51;;;;;;;1.77;1.67;;;21.00;64.90;;;;;;5071505;28;20174;-63
2021/08/10 03:15:21;;;;;;;1.58;1.48;;;21.00;64.90;;;;;;5072209;28;20182;-63
2021/08/10 03:17:47;;;;;;;1.65;1.50;;;21.00;64.90;;;;;;5071080;28;20174;-63
2021/08/10 03:20:13;;;;;;;2.03;1.73;;;21.00;65.00;;;;;;5071053;28;20197;-63
2021/08/10 03:22:44;;;;;;;1.58;1.40;;;21.00;64.90;;;;;;5110431;28;20221;-63
2021/08/10 03:25:10;;;;;;;1.60;1.50;;;21.00;64.90;;;;;;5077986;28;20177;-62
2021/08/10 03:27:36;;;;;;;1.85;1.52;;;21.00;64.90;;;;;;5094573;28;20173;-63
2021/08/10 03:30:03;;;;;;;1.58;1.48;;;20.90;64.90;;;;;;5112219;28;20258;-63
2021/08/10 03:32:29;;;;;;;1.85;1.65;;;20.90;64.90;;;;;;5112532;28;20169;-64
2021/08/10 03:34:54;;;;;;;1.63;1.50;;;20.90;64.90;;;;;;5093994;28;20363;-63
2021/08/10 03:37:20;;;;;;;1.63;1.52;;;20.90;64.90;;;;;;5076495;28;20169;-63
2021/08/10 03:39:45;;;;;;;2.28;1.60;;;21.00;64.90;;;;;;5112579;28;20532;-63
2021/08/10 03:42:11;;;;;;;1.45;1.35;;;20.90;64.90;;;;;;5112671;28;20169;-63
2021/08/10 03:44:41;;;;;;;1.95;1.58;;;20.90;64.90;;;;;;5093338;28;20176;-63
2021/08/10 03:47:14;;;;;;;1.75;1.65;;;21.00;65.00;;;;;;5094903;28;20192;-62
2021/08/10 03:49:40;;;;;;;1.80;1.65;;;21.00;65.00;;;;;;5095165;28;20209;-62
2021/08/10 03:52:06;;;;;;;1.63;1.52;;;20.90;64.90;;;;;;5093823;28;20173;-64
2021/08/10 03:54:34;;;;;;;1.77;1.67;;;20.90;65.00;;;;;;5112368;28;20555;-62
2021/08/10 03:57:00;;;;;;;1.67;1.58;;;20.90;64.90;;;;;;5112430;28;20170;-62
2021/08/10 03:59:25;;;;;;;3.22;1.48;;;20.90;64.90;;;;;;5093219;28;20172;-63
2021/08/10 04:01:51;;;;;;;3.95;1.63;;;20.90;64.90;;;;;;5112326;28;20169;-62
2021/08/10 04:04:17;;;;;;;1.95;1.65;;;20.90;64.90;;;;;;5077165;28;20180;-62
2021/08/10 04:06:43;;;;;;;1.80;1.70;;;20.90;65.00;;;;;;5076792;28;20208;-62
2021/08/10 04:09:08;;;;;;;1.80;1.70;;;20.90;65.00;;;;;;5094017;28;20208;-62
2021/08/10 04:11:34;;;;;;;1.73;1.60;;;20.90;65.00;;;;;;5093654;28;20165;-63
2021/08/10 04:14:01;;;;;;;1.92;1.60;;;20.90;65.10;;;;;;5093353;28;20191;-62
2021/08/10 04:16:26;;;;;;;1.73;1.60;;;20.90;65.00;;;;;;5093695;28;20245;-63
2021/08/10 04:18:52;;;;;;;1.90;1.60;;;20.90;65.00;;;;;;5093438;28;20229;-63
2021/08/10 04:21:19;;;;;;;1.73;1.50;;;20.90;65.00;;;;;;5093628;28;20221;-62
2021/08/10 04:23:44;;;;;;;2.00;1.38;;;20.90;65.00;;;;;;5112269;28;20180;-62
2021/08/10 04:26:10;;;;;;;1.95;1.63;;;20.90;65.00;;;;;;5111556;28;20173;-62
2021/08/10 04:28:35;;;;;;;1.63;1.52;;;20.90;65.00;;;;;;5111832;28;20207;-63
2021/08/10 04:31:01;;;;;;;1.77;1.67;;;20.90;65.00;;;;;;5112026;28;20162;-63
2021/08/10 04:33:26;;;;;;;2.33;1.80;;;20.90;65.00;;;;;;5111078;28;20234;-63
2021/08/10 04:35:52;;;;;;;2.20;2.00;;;20.90;65.00;;;;;;5111801;28;20267;-63
2021/08/10 04:38:18;;;;;;;2.08;1.55;;;20.90;65.00;;;;;;5111720;28;20173;-63
2021/08/10 04:40:43;;;;;;;1.58;1.48;;;20.80;65.00;;;;;;5111410;28;20169;-63
2021/08/10 04:43:09;;;;;;;1.85;1.50;;;20.90;65.40;;;;;;5111879;28;20260;-63
2021/08/10 04:45:35;;;;;;;1.40;1.30;;;20.90;65.00;;;;;;5111699;28;20166;-62
2021/08/10 04:48:00;;;;;;;1.73;1.60;;;20.90;65.00;;;;;;5111413;28;20212;-63
2021/08/10 04:50:26;;;;;;;2.67;1.90;;;20.80;65.00;;;;;;5111449;28;20592;-62
2021/08/10 04:52:51;;;;;;;1.83;1.73;;;20.90;65.00;;;;;;5112154;28;20197;-62
2021/08/10 04:55:17;;;;;;;3.00;1.70;;;20.90;65.00;;;;;;5111554;28;20180;-62
2021/08/10 04:57:42;;;;;;;1.92;1.70;;;20.80;65.00;;;;;;5115645;28;20177;-63
2021/08/10 05:00:08;;;;;;;1.80;1.70;;;20.80;65.00;;;;;;5115603;28;20173;-62
2021/08/10 05:02:37;;;;;;;1.70;1.60;;;20.80;65.00;;;;;;5114383;28;20173;-63
2021/08/10 05:05:02;;;;;;;1.73;1.63;;;20.90;65.00;;;;;;5115543;28;20192;-63
2021/08/10 05:07:31;;;;;;;1.85;1.67;;;20.90;64.90;;;;;;5115051;28;20624;-62
2021/08/10 05:09:56;;;;;;;1.98;1.80;;;20.90;64.90;;;;;;5114651;28;20632;-62
2021/08/10 05:12:22;;;;;;;2.38;1.95;;;20.90;64.90;;;;;;5114937;28;20176;-63
2021/08/10 05:14:49;;;;;;;1.70;1.50;;;20.90;64.90;;;;;;5115244;28;20177;-64
2021/08/10 05:17:16;;;;;;;1.60;1.50;;;20.90;64.90;;;;;;5114504;28;20184;-63
2021/08/10 05:19:41;;;;;;;1.83;1.73;;;20.90;64.80;;;;;;5115303;28;20177;-61
2021/08/10 05:22:07;;;;;;;1.92;1.73;;;20.90;64.80;;;;;;5114235;28;20224;-61
2021/08/10 05:24:32;;;;;;;2.25;1.58;;;20.90;64.80;;;;;;5114791;28;20196;-64
2021/08/10 05:26:58;;;;;;;2.55;1.98;;;20.90;64.80;;;;;;5115086;28;20165;-63
2021/08/10 05:29:23;;;;;;;2.45;1.98;;;20.90;64.70;;;;;;5113869;28;20544;-64
2021/08/10 05:31:49;;;;;;;1.80;1.67;;;20.90;64.80;;;;;;5115132;28;20621;-64
2021/08/10 05:34:14;;;;;;;1.63;1.52;;;20.90;64.70;;;;;;5114812;28;20234;-65
2021/08/10 05:36:40;;;;;;;1.80;1.70;;;20.90;64.70;;;;;;5114000;28;20180;-64
2021/08/10 05:39:05;;;;;;;1.80;1.70;;;20.90;64.80;;;;;;5114927;28;20184;-63
2021/08/10 05:41:31;;;;;;;1.88;1.73;;;20.90;64.80;;;;;;5114588;28;20178;-64
2021/08/10 05:43:56;;;;;;;1.52;1.30;;;20.90;64.80;;;;;;5113999;28;20209;-63
2021/08/10 05:46:22;;;;;;;2.50;1.95;;;20.90;64.70;;;;;;5114649;28;20165;-63
2021/08/10 05:48:47;;;;;;;2.13;1.55;;;20.90;64.70;;;;;;5114496;28;20217;-62
2021/08/10 05:51:13;;;;;;;2.10;1.90;;;20.90;64.80;;;;;;5113832;28;20637;-64
2021/08/10 05:53:38;;;;;;;2.72;1.63;;;20.90;64.70;;;;;;5114334;28;20185;-63
2021/08/10 05:56:04;;;;;;;2.88;1.77;;;20.90;64.60;;;;;;5114618;28;20201;-63
2021/08/10 05:58:30;;;;;;;2.20;2.00;;;20.90;64.50;;;;;;5113508;28;20180;-63
2021/08/10 06:00:55;;;;;;;2.10;1.70;;;20.90;64.50;;;;;;5114268;28;20173;-63
2021/08/10 06:03:21;;;;;;;1.60;1.48;;;20.90;64.50;;;;;;5114298;28;20508;-64
2021/08/10 06:05:46;;;;;;;1.70;1.58;;;21.00;64.60;;;;;;5095569;28;20580;-64
2021/08/10 06:08:12;;;;;;;2.13;1.92;;;20.90;64.50;;;;;;5113011;28;20247;-63
2021/08/10 06:10:37;;;;;;;2.53;1.80;;;21.00;64.50;;;;;;5113932;28;20173;-64
2021/08/10 06:13:03;;;;;;;2.58;1.70;;;21.00;64.50;;;;;;5113276;28;20545;-64
2021/08/10 06:15:29;;;;;;;1.83;1.73;;;21.00;64.50;;;;;;5113920;28;20178;-64
2021/08/10 06:17:54;;;;;;;1.90;1.80;;;21.00;64.40;;;;;;5114102;28;20536;-63
2021/08/10 06:20:20;;;;;;;2.20;2.00;;;21.00;64.40;;;;;;5113064;28;20191;-64
2021/08/10 06:22:45;;;;;;;2.47;1.67;;;21.00;64.40;;;;;;5113867;28;20715;-62
2021/08/10 06:25:11;;;;;;;1.83;1.70;;;21.00;64.40;;;;;;5114072;28;20501;-64
2021/08/10 06:27:37;;;;;;;2.83;1.77;;;21.00;64.40;;;;;;5112789;28;20260;-63
2021/08/10 06:30:04;;;;;;;2.88;1.50;;;21.00;64.40;;;;;;5113702;28;20188;-63
2021/08/10 06:32:31;;;;;;;2.03;1.67;;;21.00;64.50;;;;;;5112777;28;20193;-64
2021/08/10 06:34:56;;;;;;;1.92;1.52;;;21.00;64.40;;;;;;5113692;28;20265;-64
2021/08/10 06:37:22;;;;;;;2.28;1.90;;;21.00;64.40;;;;;;5113266;28;20616;-64
2021/08/10 06:39:47;;;;;;;2.42;1.90;;;21.10;64.40;;;;;;5112893;28;20169;-63
2021/08/10 06:42:13;;;;;;;1.65;1.55;;;21.10;64.40;;;;;;5113404;28;20242;-63
2021/08/10 06:44:38;;;;;;;1.90;1.80;;;21.10;64.10;;;;;;5113263;28;20230;-64
2021/08/10 06:47:04;;;;;;;1.85;1.73;;;21.10;64.20;;;;;;5112523;28;20617;-63
2021/08/10 06:49:30;;;;;;;2.03;1.85;;;21.10;64.20;;;;;;5112633;28;20729;-62
2021/08/10 06:51:55;;;;;;;2.22;1.80;;;21.10;64.30;;;;;;5112923;28;20504;-61
2021/08/10 06:54:21;;;;;;;2.20;2.00;;;21.10;64.40;;;;;;5112093;28;20259;-62
2021/08/10 06:56:46;;;;;;;2.78;1.90;;;21.10;64.50;;;;;;5113000;28;20248;-63
2021/08/10 06:59:12;;;;;;;2.45;1.60;;;21.00;64.50;;;;;;5113360;28;20184;-63
2021/08/10 07:01:37;;;;;;;1.55;1.45;;;21.10;64.60;;;;;;5112318;28;20181;-62
2021/08/10 07:04:03;;;;;;;2.10;1.80;;;21.10;64.60;;;;;;5113083;28;20236;-63
2021/08/10 07:06:30;;;;;;;2.55;1.55;;;21.00;64.60;;;;;;5112764;28;20218;-64
2021/08/10 07:08:59;;;;;;;1.92;1.48;;;21.10;64.60;;;;;;5111996;28;20289;-63
2021/08/10 07:11:25;;;;;;;1.88;1.70;;;21.10;64.60;;;;;;5112091;28;20204;-63
2021/08/10 07:13:50;;;;;;;1.80;1.70;;;21.10;64.60;;;;;;5112661;28;20209;-63
2021/08/10 07:16:16;;;;;;;3.70;1.98;;;21.10;64.60;;;;;;5111710;28;20173;-63
2021/08/10 07:18:41;;;;;;;2.65;1.92;;;21.10;64.60;;;;;;5112429;28;20188;-62
2021/08/10 07:21:07;;;;;;;2.13;1.70;;;21.10;64.70;;;;;;5112604;28;20296;-63
2021/08/10 07:23:32;;;;;;;2.33;1.50;;;21.10;64.60;;;;;;5111719;28;20221;-63
2021/08/10 07:25:58;;;;;;;2.08;1.88;;;21.10;64.50;;;;;;5112593;28;20248;-62
2021/08/10 07:28:23;;;;;;;2.72;2.33;;;21.20;64.50;;;;;;5112491;28;20304;-63
2021/08/10 07:30:49;;;;;;;2.53;2.10;;;21.20;64.30;;;;;;5111959;28;20169;-63
2021/08/10 07:33:20;;;;;;;2.13;1.92;;;21.30;64.20;;;;;;5112476;28;20177;-64
2021/08/10 07:35:45;;;;;;;2.38;2.17;;;21.30;64.10;;;;;;5111826;28;20533;-64
2021/08/10 07:38:11;;;;;;;2.55;1.70;;;21.30;63.90;;;;;;5112607;28;20169;-63
2021/08/10 07:40:37;;;;;;;3.72;1.95;;;21.30;64.00;;;;;;5112148;28;20643;-63
2021/08/10 07:43:02;;;;;;;2.33;1.90;;;21.30;64.00;;;;;;5111975;28;20177;-63
2021/08/10 07:45:28;;;;;;;4.07;2.30;;;21.30;64.20;;;;;;5112098;28;20535;-63
2021/08/10 07:47:54;;;;;;;2.88;2.30;;;21.30;64.10;;;;;;5112448;28;20200;-63
2021/08/10 07:50:20;;;;;;;2.45;2.13;;;21.30;64.30;;;;;;5111143;28;20541;-63
2021/08/10 07:52:47;;;;;;;2.38;2.08;;;21.30;64.20;;;;;;5112380;28;20176;-63
2021/08/10 07:55:13;;;;;;;3.45;2.10;;;21.30;64.20;;;;;;5112166;28;20244;-63
2021/08/10 07:57:41;;;;;;;2.40;1.98;;;21.30;64.20;;;;;;5111157;28;20336;-64
2021/08/10 08:00:08;;;;;;;2.55;2.05;;;21.40;64.20;;;;;;5112203;28;20603;-64
2021/08/10 08:02:33;;;;;;;2.30;2.10;;;21.40;64.10;;;;;;5111827;28;20250;-63
2021/08/10 08:04:59;;;;;;;2.72;2.03;;;21.40;64.10;;;;;;5111478;28;20161;-63
2021/08/10 08:07:24;;;;;;;2.83;2.50;;;21.40;64.10;;;;;;5111843;28;20246;-63
2021/08/10 08:09:50;;;;;;;4.38;2.30;;;21.40;64.20;;;;;;5111965;28;20694;-62
2021/08/10 08:12:15;;;;;;;3.83;2.70;;;21.40;64.30;;;;;;5111209;28;20564;-62
2021/08/10 08:14:45;;;;;;;3.38;2.70;;;21.40;64.60;;;;;;5112147;28;20173;-62
2021/08/10 08:17:12;;;;;;;4.32;2.50;;;21.40;64.50;;;;;;5112150;28;20173;-62
2021/08/10 08:19:37;;;;;;;3.60;2.65;;;21.40;64.60;;;;;;5111127;28;20662;-62
2021/08/10 08:22:03;;;;;;;3.40;2.70;;;21.50;64.50;;;;;;5111785;28;20318;-62
2021/08/10 08:24:29;;;;;;;5.40;2.78;;;21.50;64.40;;;;;;5111862;28;20471;-62
2021/08/10 08:26:54;;;;;;;4.07;2.55;;;21.50;64.50;;;;;;5111329;28;20260;-61
2021/08/10 08:29:20;;;;;;;6.10;2.70;;;21.50;64.60;;;;;;5111642;28;20258;-62
2021/08/10 08:31:45;;;;;;;5.60;2.65;;;21.50;64.70;;;;;;5115592;28;20180;-61
2021/08/10 08:34:14;;;;;;;7.85;2.88;;;21.60;64.90;;;;;;5115348;28;20699;-62
2021/08/10 08:36:39;;;;;;;8.02;3.03;;;21.50;64.90;;;;;;5115616;28;20173;-61
2021/08/10 08:39:05;;;;;;;4.00;2.80;;;21.60;65.00;;;;;;5115315;28;20706;-61
2021/08/10 08:41:31;;;;;;;3.58;2.15;;;21.60;64.80;;;;;;5115578;28;20177;-61
2021/08/10 08:43:56;;;;;;;6.13;2.85;;;21.70;64.50;;;;;;5121206;27;20599;-61
2021/08/10 08:46:22;;;;;;;4.80;2.50;;;21.70;64.40;;;;;;5124782;27;20264;-60
2021/08/10 08:48:47;;;;;;;5.30;2.55;;;21.80;64.30;;;;;;5127034;27;20205;-60
2021/08/10 08:51:23;;;;;;;6.97;2.58;;;21.80;64.30;;;;;;5136366;27;20185;-60
2021/08/10 08:53:53;;;;;;;5.07;2.70;;;21.80;64.30;;;;;;5100039;27;20185;-61
2021/08/10 08:56:22;;;;;;;4.78;2.60;;;21.80;64.30;;;;;;5122796;27;20178;-61
2021/08/10 08:58:48;;;;;;;5.10;2.75;;;21.80;64.20;;;;;;5122556;27;20177;-63
2021/08/10 09:01:14;;;;;;;5.65;2.80;;;21.90;64.20;;;;;;5114176;28;20276;-62
2021/08/10 09:03:39;;;;;;;5.35;2.97;;;21.90;64.10;;;;;;5130096;27;20223;-61
2021/08/10 09:06:05;;;;;;;4.95;2.60;;;21.90;64.10;;;;;;5135800;27;20177;-62
2021/08/10 09:08:32;;;;;;;6.63;3.00;;;22.00;64.20;;;;;;5134380;27;20208;-61
2021/08/10 09:11:09;;;;;;;6.28;2.95;;;22.00;64.00;;;;;;5130265;27;20490;-61
2021/08/10 09:13:34;;;;;;;6.03;2.78;;;22.10;64.00;;;;;;5115098;28;20229;-61
2021/08/10 09:16:01;;;;;;;7.20;3.05;;;22.10;64.00;;;;;;5114581;28;20635;-60
2021/08/10 09:18:27;;;;;;;8.32;2.55;;;22.10;64.10;;;;;;5114704;28;20177;-60
2021/08/10 09:21:08;;;;;;;4.65;2.80;;;22.10;64.40;;;;;;5115139;28;20173;-60
2021/08/10 09:23:54;;;;;;;7.43;2.75;;;22.10;65.00;;;;;;5115133;28;20165;-60
2021/08/10 09:26:24;;;;;;;7.90;2.72;;;22.00;65.20;;;;;;5114909;28;20176;-61
2021/08/10 09:29:00;;;;;;;6.68;2.80;;;22.00;65.50;;;;;;5126348;27;20204;-60
2021/08/10 09:31:48;;;;;;;7.03;2.92;;;21.90;65.50;;;;;;5135454;27;20176;-62
2021/08/10 09:34:21;;;;;;;4.30;2.50;;;21.90;65.60;;;;;;5135719;27;20229;-60
2021/08/10 09:36:47;;;;;;;3.55;2.63;;;21.90;65.70;;;;;;5135084;27;20185;-60
2021/08/10 09:39:12;;;;;;;7.15;3.10;;;21.90;65.70;;;;;;5135374;27;20176;-62
2021/08/10 09:41:39;;;;;;;4.00;2.92;;;21.90;65.70;;;;;;5134776;27;20177;-60
2021/08/10 09:44:17;;;;;;;6.28;2.40;;;21.90;65.70;;;;;;5134649;27;20177;-61
2021/08/10 09:46:50;;;;;;;4.65;2.60;;;21.90;65.80;;;;;;5135108;27;20177;-61
2021/08/10 09:49:17;;;;;;;3.38;2.95;;;21.90;65.90;;;;;;5134128;27;20666;-60
2021/08/10 09:51:46;;;;;;;7.00;2.88;;;21.90;65.80;;;;;;5134842;27;20179;-60
2021/08/10 09:54:12;;;;;;;4.82;3.08;;;21.90;65.60;;;;;;5134933;27;20224;-59
2021/08/10 09:56:59;;;;;;;2.88;2.28;;;21.90;65.40;;;;;;5133976;27;20215;-60
2021/08/10 09:59:41;;;;;;;2.97;2.30;;;21.80;65.30;;;;;;5134148;27;20180;-62
2021/08/10 10:02:19;;;;;;;4.68;3.00;;;21.90;65.10;;;;;;5127666;27;20185;-60
2021/08/10 10:04:49;;;;;;;3.60;2.58;;;21.80;65.20;;;;;;5113606;28;20169;-60
2021/08/10 10:07:15;;;;;;;4.38;2.42;;;21.80;65.30;;;;;;5114055;28;20687;-59
2021/08/10 10:09:40;;;;;;;4.78;2.78;;;21.70;65.40;;;;;;5113974;28;20217;-60
2021/08/10 10:12:09;;;;;;;3.70;2.60;;;21.70;65.80;;;;;;5095264;28;20161;-60
2021/08/10 10:14:34;;;;;;;4.78;2.92;;;21.70;66.00;;;;;;5113934;28;20181;-61
2021/08/10 10:17:00;;;;;;;3.10;2.25;;;21.70;66.00;;;;;;5095807;28;20173;-60
2021/08/10 10:19:26;;;;;;;3.95;2.70;;;21.70;66.00;;;;;;5094914;28;20215;-60
2021/08/10 10:21:57;;;;;;;3.28;2.60;;;21.70;66.00;;;;;;5095601;28;20225;-59
2021/08/10 10:24:23;;;;;;;4.03;2.25;;;21.80;65.70;;;;;;5112347;28;20177;-60
2021/08/10 10:27:00;;;;;;;4.90;2.75;;;21.90;65.40;;;;;;5111639;28;20192;-60
2021/08/10 10:29:26;;;;;;;6.00;2.80;;;21.90;65.20;;;;;;5077677;28;20197;-61
2021/08/10 10:31:52;;;;;;;5.40;2.58;;;21.90;65.30;;;;;;5093077;28;20169;-61
2021/08/10 10:34:17;;;;;;;3.75;2.40;;;21.80;65.40;;;;;;5111794;28;20671;-61
2021/08/10 10:36:44;;;;;;;4.22;2.30;;;21.70;65.40;;;;;;5093479;28;20173;-60
2021/08/10 10:39:10;;;;;;;4.68;3.03;;;21.70;65.60;;;;;;5111148;28;20173;-60
2021/08/10 10:41:36;;;;;;;4.53;2.15;;;21.70;65.70;;;;;;5095127;28;20188;-60
2021/08/10 10:44:01;;;;;;;3.75;2.55;;;21.70;65.70;;;;;;5078309;28;20173;-60
2021/08/10 10:46:37;;;;;;;4.13;2.65;;;21.70;65.70;;;;;;5112757;28;20172;-60
2021/08/10 10:49:04;;;;;;;2.78;2.50;;;21.70;65.70;;;;;;5113626;28;20220;-60
2021/08/10 10:51:34;;;;;;;3.40;2.33;;;21.60;65.70;;;;;;5113474;28;20179;-60
2021/08/10 10:54:29;;;;;;;2.90;2.50;;;21.70;65.60;;;;;;5112193;28;20179;-60
2021/08/10 10:56:59;;;;;;;3.47;2.03;;;21.80;65.10;;;;;;5095870;28;20193;-60
2021/08/10 10:59:35;;;;;;;4.50;2.40;;;22.00;65.00;;;;;;5112852;28;20578;-61
2021/08/10 11:02:21;;;;;;;2.88;2.22;;;22.00;64.90;;;;;;5117595;27;20173;-61
2021/08/10 11:05:05;;;;;;;3.88;2.38;;;22.10;64.70;;;;;;5133611;27;20255;-60
2021/08/10 11:07:40;;;;;;;4.07;2.13;;;22.20;64.40;;;;;;5132735;27;20169;-60
2021/08/10 11:10:06;;;;;;;3.85;2.40;;;22.20;64.20;;;;;;5133739;27;20255;-60
2021/08/10 11:12:41;;;;;;;3.60;2.38;;;22.30;64.10;;;;;;5133240;27;20165;-61
2021/08/10 11:15:08;;;;;;;3.53;2.63;;;22.20;64.30;;;;;;5132753;27;20199;-61
2021/08/10 11:17:35;;;;;;;3.35;2.28;;;22.20;64.40;;;;;;5133470;27;20176;-61
2021/08/10 11:20:01;;;;;;;3.00;2.40;;;22.20;64.30;;;;;;5132779;27;20200;-61
2021/08/10 11:22:27;;;;;;;4.25;2.20;;;22.20;64.50;;;;;;5096896;27;20242;-61
2021/08/10 11:25:00;;;;;;;3.70;2.47;;;22.10;64.70;;;;;;5133573;27;20221;-60
2021/08/10 11:27:43;;;;;;;3.80;2.65;;;22.00;64.80;;;;;;5133213;27;20268;-61
2021/08/10 11:30:11;;;;;;;3.50;2.58;;;22.00;64.90;;;;;;5114952;27;20196;-62
2021/08/10 11:32:44;;;;;;;6.43;2.95;;;22.00;64.90;;;;;;5133039;27;20217;-61
2021/08/10 11:35:35;;;;;;;2.72;2.50;;;22.10;64.80;;;;;;5132614;27;20188;-62
2021/08/10 11:38:12;;;;;;;2.72;2.08;;;22.00;64.80;;;;;;5133213;27;20176;-69
2021/08/10 11:40:50;;;;;;;4.60;1.80;;;22.00;64.80;;;;;;5133057;27;20191;-66
2021/08/10 11:43:16;;;;;;;5.07;2.50;;;22.00;64.80;;;;;;5132002;27;20630;-69
2021/08/10 11:45:41;;;;;;;3.30;2.50;;;22.00;64.80;;;;;;5114791;27;20180;-68
2021/08/10 11:48:07;;;;;;;3.75;2.47;;;22.00;64.80;;;;;;5133027;27;20200;-68
2021/08/10 11:50:36;;;;;;;3.60;2.35;;;22.00;64.80;;;;;;5132121;27;20176;-69
2021/08/10 11:53:02;;;;;;;3.85;2.35;;;22.00;64.80;;;;;;5132991;27;20247;-70
2021/08/10 11:55:33;;;;;;;4.35;2.08;;;22.10;64.80;;;;;;5132739;27;20177;-68
2021/08/10 11:58:05;;;;;;;3.20;2.28;;;22.10;64.60;;;;;;5132364;27;20611;-69
2021/08/10 12:00:32;;;;;;;3.97;2.45;;;22.10;64.50;;;;;;5132725;27;20179;-69
2021/08/10 12:02:58;;;;;;;3.47;2.28;;;22.10;64.50;;;;;;5119716;27;20247;-69
2021/08/10 12:05:23;;;;;;;3.80;2.20;;;22.20;64.60;;;;;;5110918;28;20264;-68
2021/08/10 12:07:57;;;;;;;4.80;2.35;;;22.20;64.60;;;;;;5094192;28;20589;-63
2021/08/10 12:10:31;;;;;;;4.65;2.53;;;22.20;64.50;;;;;;5111505;28;20549;-63
2021/08/10 12:13:20;;;;;;;6.05;2.47;;;22.20;64.50;;;;;;5112192;28;20622;-62
2021/08/10 12:15:45;;;;;;;4.28;2.47;;;22.30;64.30;;;;;;5101588;28;20200;-63
2021/08/10 12:18:15;;;;;;;5.85;2.60;;;22.30;64.20;;;;;;5111489;28;20635;-63
2021/08/10 12:20:54;;;;;;;3.95;2.25;;;22.30;64.10;;;;;;5111954;28;20173;-62
2021/08/10 12:23:20;;;;;;;4.65;2.30;;;22.30;63.90;;;;;;5111816;28;20577;-64
2021/08/10 12:25:45;;;;;;;5.13;2.28;;;22.40;63.90;;;;;;5111331;28;20260;-63
2021/08/10 12:28:11;;;;;;;4.47;2.42;;;22.40;63.80;;;;;;5111955;28;20215;-64
2021/08/10 12:30:39;;;;;;;4.15;2.72;;;22.40;63.60;;;;;;5111841;28;20173;-65
2021/08/10 12:33:20;;;;;;;5.30;2.88;;;22.40;63.60;;;;;;5111170;28;20645;-64
2021/08/10 12:35:59;;;;;;;3.78;2.08;;;22.50;63.40;;;;;;5111874;28;20250;-61
2021/08/10 12:38:24;;;;;;;4.20;2.22;;;22.50;63.30;;;;;;5111069;28;20255;-62
2021/08/10 12:40:51;;;;;;;4.15;2.40;;;22.60;63.40;;;;;;5111769;28;20362;-60
2021/08/10 12:43:18;;;;;;;3.28;2.63;;;22.60;63.20;;;;;;5111631;28;20566;-61
2021/08/10 12:45:44;;;;;;;5.25;2.17;;;22.70;62.90;;;;;;5093238;28;20177;-60
2021/08/10 12:48:32;;;;;;;3.38;2.35;;;22.80;62.80;;;;;;5111881;28;20220;-61
2021/08/10 12:51:02;;;;;;;4.03;2.33;;;22.80;62.70;;;;;;5111988;28;20185;-61